createdAt,value
2022-08-03T00:01:56.605Z,18.30
2022-08-03T00:06:59.174Z,18.30
2022-08-03T00:12:01.702Z,18.30
2022-08-03T00:17:04.285Z,18.20
2022-08-03T00:22:06.791Z,18.10
2022-08-03T00:27:09.378Z,18.10
2022-08-03T00:32:11.964Z,18.00
2022-08-03T00:37:14.735Z,17.90
2022-08-03T00:42:19.041Z,18.00
2022-08-03T00:47:21.614Z,18.00
2022-08-03T00:52:24.124Z,17.90
2022-08-03T00:57:27.129Z,17.80
2022-08-03T01:02:29.739Z,17.80
2022-08-03T01:08:05.755Z,17.70
2022-08-03T01:14:00.979Z,17.60
2022-08-03T01:19:30.111Z,17.60
2022-08-03T01:24:32.561Z,17.60
2022-08-03T01:29:38.048Z,17.70
2022-08-03T01:34:51.987Z,17.70
2022-08-03T01:39:57.945Z,17.60
2022-08-03T01:45:02.020Z,17.50
2022-08-03T01:50:07.309Z,17.50
2022-08-03T01:55:12.373Z,17.50
2022-08-03T02:00:15.536Z,17.50
2022-08-03T02:05:19.895Z,17.50
2022-08-03T02:10:34.790Z,17.50
2022-08-03T02:15:39.368Z,17.60
2022-08-03T02:20:43.757Z,17.70
2022-08-03T02:25:51.046Z,17.70
2022-08-03T02:30:55.930Z,17.70
2022-08-03T02:36:01.228Z,17.80
2022-08-03T02:41:09.122Z,17.80
2022-08-03T02:46:15.102Z,17.70
2022-08-03T02:51:20.611Z,17.70
2022-08-03T02:56:25.456Z,17.70
2022-08-03T03:01:29.253Z,17.80
2022-08-03T03:06:32.460Z,17.90
2022-08-03T03:11:38.462Z,18.00
2022-08-03T03:16:42.929Z,18.10
2022-08-03T03:21:46.471Z,18.20
2022-08-03T03:26:49.657Z,18.20
2022-08-03T03:31:52.416Z,18.30
2022-08-03T03:36:55.044Z,18.30
2022-08-03T03:41:58.144Z,18.40
2022-08-03T03:47:00.738Z,18.50
2022-08-03T03:52:03.341Z,18.50
2022-08-03T03:57:05.859Z,18.50
2022-08-03T04:02:09.961Z,18.50
2022-08-03T04:07:31.043Z,18.70
2022-08-03T04:12:36.109Z,18.70
2022-08-03T04:17:40.478Z,18.90
2022-08-03T04:22:43.148Z,19.10
2022-08-03T04:28:29.684Z,19.30
2022-08-03T04:33:10.842Z,19.40
2022-08-03T04:38:15.683Z,19.50
2022-08-03T04:43:20.871Z,19.50
2022-08-03T04:48:23.526Z,19.60
2022-08-03T04:53:26.081Z,19.70
2022-08-03T04:58:28.583Z,19.70
2022-08-03T05:03:32.002Z,19.90
2022-08-03T05:08:34.549Z,20.10
2022-08-03T05:13:37.104Z,20.20
2022-08-03T05:18:39.999Z,20.30
2022-08-03T05:23:43.532Z,20.40
2022-08-03T05:28:50.763Z,20.50
2022-08-03T05:33:54.671Z,20.60
2022-08-03T05:39:02.228Z,20.50
2022-08-03T05:44:05.438Z,20.60
2022-08-03T05:49:08.104Z,20.80
2022-08-03T05:54:10.806Z,20.90
2022-08-03T05:59:37.043Z,20.90
2022-08-03T06:04:35.997Z,20.90
2022-08-03T06:10:34.410Z,21.00
2022-08-03T06:15:01.226Z,21.30
2022-08-03T06:20:04.139Z,21.60
2022-08-03T06:25:11.290Z,21.90
2022-08-03T06:30:21.066Z,22.20
2022-08-03T06:35:24.085Z,22.50
2022-08-03T06:40:31.448Z,22.90
2022-08-03T06:45:35.389Z,23.20
2022-08-03T06:50:39.456Z,23.60
2022-08-03T06:55:42.490Z,23.70
2022-08-03T07:00:45.166Z,23.70
2022-08-03T07:05:47.870Z,23.40
2022-08-03T07:10:50.784Z,23.20
2022-08-03T07:15:55.571Z,23.00
2022-08-03T07:20:59.097Z,23.10
2022-08-03T07:26:01.649Z,23.30
2022-08-03T07:31:04.376Z,23.60
2022-08-03T07:36:07.031Z,23.70
2022-08-03T07:41:09.622Z,23.80
2022-08-03T07:46:12.343Z,24.00
2022-08-03T07:51:15.001Z,24.10
2022-08-03T07:56:17.661Z,24.30
2022-08-03T08:01:20.863Z,24.30
2022-08-03T08:06:23.540Z,24.40
2022-08-03T08:11:26.387Z,24.40
2022-08-03T08:16:28.895Z,24.60
2022-08-03T08:21:53.019Z,24.70
2022-08-03T08:26:53.903Z,24.80
2022-08-03T08:31:56.524Z,24.90
2022-08-03T08:36:59.618Z,24.90
2022-08-03T08:42:02.169Z,25.20
2022-08-03T08:47:04.943Z,25.20
2022-08-03T08:52:25.477Z,25.30
2022-08-03T08:57:43.246Z,25.30
2022-08-03T09:02:47.137Z,25.70
2022-08-03T09:07:50.364Z,25.80
2022-08-03T09:12:53.363Z,25.80
2022-08-03T09:17:58.393Z,25.80
2022-08-03T09:23:44.685Z,26.00
2022-08-03T09:29:00.465Z,26.10
2022-08-03T09:34:01.292Z,26.40
2022-08-03T09:39:11.398Z,26.40
2022-08-03T09:44:16.189Z,26.50
2022-08-03T09:49:28.084Z,26.70
2022-08-03T09:54:31.955Z,26.70
2022-08-03T09:59:35.406Z,26.80
2022-08-03T10:04:48.440Z,27.10
2022-08-03T10:10:28.959Z,27.40
2022-08-03T10:16:24.017Z,27.40
2022-08-03T10:20:51.719Z,28.00
2022-08-03T10:26:01.967Z,28.60
2022-08-03T10:31:07.812Z,29.00
2022-08-03T10:36:12.662Z,29.10
2022-08-03T10:41:16.933Z,29.50
2022-08-03T10:46:21.426Z,29.70
2022-08-03T10:51:24.775Z,29.70
2022-08-03T10:56:51.579Z,29.90
2022-08-03T11:01:59.964Z,30.10
2022-08-03T11:07:23.666Z,30.00
2022-08-03T11:12:32.242Z,30.40
2022-08-03T11:17:46.832Z,31.00
2022-08-03T11:23:01.167Z,31.10
2022-08-03T11:28:26.842Z,31.10
2022-08-03T11:33:30.653Z,31.50
2022-08-03T11:38:33.180Z,31.80
2022-08-03T11:43:37.277Z,32.10
2022-08-03T11:48:45.702Z,32.70
2022-08-03T11:53:59.028Z,32.60
2022-08-03T11:59:20.722Z,32.70
2022-08-03T12:04:24.075Z,33.20
2022-08-03T12:09:26.669Z,33.50
2022-08-03T12:14:50.041Z,33.70
2022-08-03T12:19:54.050Z,34.40
2022-08-03T12:24:56.745Z,34.90
2022-08-03T12:30:01.607Z,35.30
2022-08-03T12:35:06.064Z,35.60
2022-08-03T12:40:13.272Z,36.50
2022-08-03T12:45:22.968Z,37.50
2022-08-03T12:50:36.560Z,37.70
2022-08-03T12:56:05.190Z,37.90
2022-08-03T13:01:09.728Z,38.30
2022-08-03T13:06:16.385Z,38.40
2022-08-03T13:11:50.511Z,38.50
2022-08-03T13:16:46.443Z,39.50
2022-08-03T13:21:53.524Z,39.20
2022-08-03T13:28:02.422Z,40.40
2022-08-03T13:32:30.335Z,40.40
2022-08-03T13:37:33.447Z,41.00
2022-08-03T13:42:36.901Z,41.20
2022-08-03T13:47:39.664Z,41.30
2022-08-03T13:52:42.617Z,42.20
2022-08-03T13:58:05.277Z,43.30
2022-08-03T14:03:15.347Z,42.80
2022-08-03T14:08:18.345Z,43.20
2022-08-03T14:13:20.826Z,43.60
2022-08-03T14:18:28.825Z,43.90
2022-08-03T14:23:38.188Z,43.00
2022-08-03T14:28:41.350Z,43.50
2022-08-03T14:33:43.930Z,43.20
2022-08-03T14:38:46.588Z,44.00
2022-08-03T14:44:01.522Z,44.20
2022-08-03T14:50:36.876Z,42.80
2022-08-03T14:54:31.042Z,44.10
2022-08-03T14:59:56.333Z,44.50
2022-08-03T15:04:56.636Z,45.30
2022-08-03T15:09:59.718Z,45.60
2022-08-03T15:15:05.426Z,44.80
2022-08-03T15:20:26.561Z,44.70
2022-08-03T15:26:29.292Z,44.80
2022-08-03T15:30:54.510Z,44.90
2022-08-03T15:35:57.258Z,45.00
2022-08-03T15:41:00.257Z,45.90
2022-08-03T15:46:28.235Z,45.20
2022-08-03T15:51:25.809Z,45.00
2022-08-03T15:56:28.335Z,44.70
2022-08-03T16:01:32.106Z,44.50
2022-08-03T16:06:36.320Z,44.30
2022-08-03T16:11:39.199Z,43.80
2022-08-03T16:16:41.738Z,44.20
2022-08-03T16:21:48.809Z,43.80
2022-08-03T16:26:53.172Z,44.10
2022-08-03T16:31:55.691Z,44.00
2022-08-03T16:36:58.343Z,42.90
2022-08-03T16:42:01.901Z,41.30
2022-08-03T16:47:04.641Z,39.00
2022-08-03T16:52:07.334Z,37.30
2022-08-03T16:57:09.937Z,37.50
2022-08-03T17:02:22.246Z,38.50
2022-08-03T17:07:29.646Z,38.30
2022-08-03T17:12:32.944Z,39.30
2022-08-03T17:17:37.562Z,39.90
2022-08-03T17:23:03.237Z,40.40
2022-08-03T17:28:50.816Z,39.40
2022-08-03T17:33:33.925Z,37.50
2022-08-03T17:38:39.556Z,36.30
2022-08-03T17:44:15.566Z,35.30
2022-08-03T17:49:24.724Z,34.30
2022-08-03T17:55:56.316Z,33.80
2022-08-03T18:00:43.405Z,33.30
2022-08-03T18:06:10.724Z,33.00
2022-08-03T18:11:21.787Z,32.70
2022-08-03T18:16:33.429Z,32.60
2022-08-03T18:22:02.966Z,32.30
2022-08-03T18:27:03.144Z,32.00
2022-08-03T18:32:13.291Z,31.30
2022-08-03T18:37:20.533Z,30.80
2022-08-03T18:42:26.768Z,30.60
2022-08-03T18:47:50.513Z,30.50
2022-08-03T18:53:16.689Z,30.30
2022-08-03T18:58:33.663Z,29.80
2022-08-03T19:03:43.174Z,29.40
2022-08-03T19:08:50.283Z,29.20
2022-08-03T19:13:56.779Z,29.20
2022-08-03T19:19:01.314Z,28.50
2022-08-03T19:29:58.797Z,28.20
2022-08-03T19:34:54.219Z,27.60
2022-08-03T19:39:58.346Z,27.10
2022-08-03T19:45:14.365Z,26.80
2022-08-03T19:50:20.325Z,26.50
2022-08-03T19:55:26.829Z,26.50
2022-08-03T20:00:38.269Z,26.20
2022-08-03T20:05:51.850Z,25.90
2022-08-03T20:10:55.225Z,25.50
2022-08-03T20:15:57.731Z,25.40
2022-08-03T20:21:14.795Z,25.20
2022-08-03T20:26:20.378Z,25.50
2022-08-03T20:31:32.632Z,25.20
2022-08-03T20:36:38.899Z,24.80
2022-08-03T20:41:41.804Z,25.00
2022-08-03T20:46:53.189Z,24.80
2022-08-03T20:52:06.999Z,24.30
2022-08-03T20:57:21.493Z,24.10
2022-08-03T21:02:29.531Z,24.10
2022-08-03T21:07:45.489Z,24.00
2022-08-03T21:13:09.087Z,28.40
2022-08-03T21:13:30.093Z,23.80
2022-08-03T21:18:38.062Z,23.90
2022-08-03T21:23:48.719Z,23.70
2022-08-03T21:28:55.528Z,23.20
2022-08-03T21:34:01.530Z,23.70
2022-08-03T21:39:08.516Z,23.90
2022-08-03T21:44:11.188Z,24.00
2022-08-03T21:50:04.884Z,23.70
2022-08-03T21:54:40.935Z,23.50
2022-08-03T21:59:52.089Z,23.30
2022-08-03T22:04:57.148Z,23.20
2022-08-03T22:10:01.861Z,23.40
2022-08-03T22:15:08.174Z,23.50
2022-08-03T22:20:14.468Z,23.40
2022-08-03T22:25:16.984Z,23.40
2022-08-03T22:30:20.177Z,23.30
2022-08-03T22:35:25.239Z,23.30
2022-08-03T22:40:28.483Z,23.30
2022-08-03T22:45:45.836Z,23.10
2022-08-03T22:50:55.585Z,23.10
2022-08-03T22:55:58.677Z,23.10
2022-08-03T23:01:11.596Z,23.10
2022-08-03T23:06:19.073Z,23.00
2022-08-03T23:11:23.966Z,23.00
2022-08-03T23:16:28.874Z,23.10
2022-08-03T23:22:00.385Z,22.90
2022-08-03T23:26:56.558Z,23.30
2022-08-03T23:32:01.126Z,22.80
2022-08-03T23:37:05.884Z,22.70
2022-08-03T23:42:09.357Z,22.50
2022-08-03T23:47:13.599Z,22.50
2022-08-03T23:52:33.590Z,22.10
2022-08-03T23:57:51.371Z,22.00
